PILOTS ONLINE: 254    ATC ONLINE: 41

Location

IATA FHU
City Fort Huachuca Sierra Vista
Country  United States
Latitude 31° 35' 18" N
Longitude 110° 20' 38" W
Elevation 4719 ft
Type Medium Airport

Weather

METAR
2014/07/11 09:55
KFHU 110955Z 27007KT 10SM BKN110 OVC250 19/16 A3013 RMK SLP136
TAF
2014/07/11 07:59
TAF 
      AMD KFHU 1107/1209 27009KT 9999 BKN100 QNH3013INS 
      TEMPO 1107/1110 VRB25G35KT 8000 -TSRA BKN003CB BKN055 OVC075 
      TEMPO 1120/1204 VRB12G18KT VCTS BKN050CB 
      BECMG 1204/1205 27009KT 9999 VCSH BKN100 QNH3019INS 
      BECMG 1206/1207 27009KT 9999 NSW SCT100 QNH3020INS TX29/1122Z TN19/1112Z 
      AMD 110745

Runways

03/21 4285 ft / 75 ft
08/26 12001 ft / 150 ft
12/30 5366 ft / 100 ft

Outbound flights

Inbound flights


Spotted incorrect airport information? Please login with your VATSIM ID.